createdAt,value
2022-12-06T00:01:48.529Z,10.52
2022-12-06T00:04:17.899Z,9.80
2022-12-06T00:06:49.218Z,9.27
2022-12-06T00:09:23.336Z,8.98
2022-12-06T00:11:51.424Z,8.90
2022-12-06T00:14:20.083Z,7.95
2022-12-06T00:16:48.984Z,11.18
2022-12-06T00:19:19.564Z,10.52
2022-12-06T00:21:48.483Z,10.18
2022-12-06T00:24:18.666Z,12.10
2022-12-06T00:26:48.681Z,12.35
2022-12-06T00:29:22.020Z,13.55
2022-12-06T00:31:50.680Z,11.48
2022-12-06T00:34:18.354Z,11.48
2022-12-06T00:36:46.148Z,10.13
2022-12-06T00:39:17.950Z,12.77
2022-12-06T00:41:46.394Z,11.25
2022-12-06T00:44:14.200Z,10.73
2022-12-06T00:46:41.900Z,11.98
2022-12-06T00:49:10.263Z,10.48
2022-12-06T00:51:39.198Z,9.57
2022-12-06T00:54:08.576Z,9.38
2022-12-06T00:56:37.354Z,9.77
2022-12-06T00:59:06.350Z,9.43
2022-12-06T01:01:35.060Z,9.07
2022-12-06T01:04:07.337Z,11.45
2022-12-06T01:06:36.673Z,10.50
2022-12-06T01:09:10.476Z,12.15
2022-12-06T01:11:39.286Z,10.65
2022-12-06T01:14:07.043Z,10.60
2022-12-06T01:16:36.054Z,10.95
2022-12-06T01:19:05.663Z,9.68
2022-12-06T01:21:33.411Z,9.25
2022-12-06T01:24:01.083Z,9.90
2022-12-06T01:26:31.590Z,9.68
2022-12-06T01:29:00.936Z,11.25
2022-12-06T01:31:35.573Z,10.60
2022-12-06T01:34:06.370Z,9.45
2022-12-06T01:36:34.416Z,9.00
2022-12-06T01:39:07.596Z,9.02
2022-12-06T01:41:35.291Z,10.43
2022-12-06T01:44:02.997Z,10.35
2022-12-06T01:46:46.524Z,8.45
2022-12-06T01:49:14.074Z,8.73
2022-12-06T01:51:50.606Z,9.55
2022-12-06T01:54:21.046Z,8.27
2022-12-06T01:56:50.400Z,9.50
2022-12-06T01:59:18.450Z,9.35
2022-12-06T02:01:47.385Z,11.77
2022-12-06T02:04:17.446Z,11.05
2022-12-06T02:06:45.431Z,9.30
2022-12-06T02:09:14.789Z,12.45
2022-12-06T02:11:42.758Z,8.25
2022-12-06T02:14:13.938Z,10.77
2022-12-06T02:16:50.658Z,8.63
2022-12-06T02:19:43.027Z,14.13
2022-12-06T02:22:25.194Z,9.27
2022-12-06T02:25:02.814Z,8.52
2022-12-06T02:27:57.797Z,10.68
2022-12-06T02:30:45.019Z,14.85
2022-12-06T02:33:24.425Z,17.40
2022-12-06T02:36:01.762Z,12.48
2022-12-06T02:38:44.520Z,11.00
2022-12-06T02:41:25.245Z,16.87
2022-12-06T02:43:58.694Z,15.52
2022-12-06T02:46:30.855Z,24.17
2022-12-06T02:49:01.355Z,31.33
2022-12-06T02:51:31.275Z,40.60
2022-12-06T02:54:02.248Z,48.65
2022-12-06T02:56:33.078Z,38.58
2022-12-06T02:59:01.132Z,58.80
2022-12-06T03:01:32.869Z,73.85
2022-12-06T03:04:50.704Z,73.57
2022-12-06T03:07:24.562Z,70.55
2022-12-06T03:10:04.424Z,34.92
2022-12-06T03:12:41.188Z,28.58
2022-12-06T03:15:27.561Z,60.55
2022-12-06T03:17:59.423Z,43.83
2022-12-06T03:20:33.053Z,38.33
2022-12-06T03:23:08.124Z,32.65
2022-12-06T03:25:37.182Z,47.05
2022-12-06T03:28:10.338Z,73.07
2022-12-06T03:30:39.091Z,50.10
2022-12-06T03:33:07.069Z,13.93
2022-12-06T03:35:35.972Z,31.98
2022-12-06T03:38:10.144Z,27.48
2022-12-06T03:40:41.432Z,37.67
2022-12-06T03:43:09.203Z,20.33
2022-12-06T03:46:07.598Z,29.95
2022-12-06T03:48:41.819Z,17.62
2022-12-06T03:51:27.155Z,23.30
2022-12-06T03:53:58.465Z,41.00
2022-12-06T03:56:27.499Z,39.97
2022-12-06T03:58:55.491Z,33.40
2022-12-06T04:01:23.322Z,41.72
2022-12-06T04:03:51.340Z,39.05
2022-12-06T04:06:19.033Z,47.72
2022-12-06T04:08:46.742Z,22.77
2022-12-06T04:11:14.433Z,15.07
2022-12-06T04:13:42.650Z,38.10
2022-12-06T04:16:29.900Z,23.50
2022-12-06T04:18:57.560Z,32.05
2022-12-06T04:21:33.979Z,18.65
2022-12-06T04:24:01.700Z,44.53
2022-12-06T04:26:29.359Z,39.15
2022-12-06T04:29:15.765Z,32.70
2022-12-06T04:32:02.197Z,30.67
2022-12-06T04:34:48.402Z,24.70
2022-12-06T04:37:37.380Z,75.22
2022-12-06T04:40:05.369Z,42.20
2022-12-06T04:42:51.435Z,37.80
2022-12-06T04:45:19.043Z,41.70
2022-12-06T04:47:46.649Z,56.90
2022-12-06T04:50:14.296Z,35.85
2022-12-06T04:52:42.022Z,49.72
2022-12-06T04:55:10.139Z,33.33
2022-12-06T04:57:37.730Z,33.63
2022-12-06T05:00:06.041Z,41.95
2022-12-06T05:02:33.668Z,33.60
2022-12-06T05:05:01.293Z,39.28
2022-12-06T05:07:29.087Z,31.33
2022-12-06T05:09:56.720Z,49.85
2022-12-06T05:12:24.481Z,37.67
2022-12-06T05:14:52.206Z,26.45
2022-12-06T05:17:19.797Z,16.98
2022-12-06T05:19:47.496Z,17.87
2022-12-06T05:22:15.174Z,39.42
2022-12-06T05:24:42.807Z,20.17
2022-12-06T05:27:10.495Z,21.42
2022-12-06T05:29:38.105Z,21.45
2022-12-06T05:32:06.046Z,19.02
2022-12-06T05:34:33.660Z,20.20
2022-12-06T05:37:01.316Z,25.12
2022-12-06T05:39:30.452Z,19.62
2022-12-06T05:41:58.182Z,16.23
2022-12-06T05:44:25.866Z,25.37
2022-12-06T05:46:53.562Z,18.85
2022-12-06T05:49:21.282Z,23.20
2022-12-06T05:51:49.148Z,19.70
2022-12-06T05:54:16.788Z,19.95
2022-12-06T05:56:44.476Z,24.08
2022-12-06T05:59:12.369Z,19.95
2022-12-06T06:01:40.073Z,22.77
2022-12-06T06:04:07.920Z,23.40
2022-12-06T06:06:35.652Z,36.58
2022-12-06T06:09:03.303Z,28.40
2022-12-06T06:11:30.921Z,25.45
2022-12-06T06:13:58.598Z,21.92
2022-12-06T06:16:26.314Z,36.67
2022-12-06T06:18:54.082Z,29.65
2022-12-06T06:21:21.740Z,15.52
2022-12-06T06:23:49.312Z,18.02
2022-12-06T06:26:16.982Z,19.90
2022-12-06T06:28:44.619Z,24.52
2022-12-06T06:31:12.386Z,29.45
2022-12-06T06:33:40.090Z,30.67
2022-12-06T06:36:08.135Z,15.18
2022-12-06T06:38:35.841Z,20.88
2022-12-06T06:41:05.014Z,23.98
2022-12-06T06:43:33.636Z,20.33
2022-12-06T06:46:04.114Z,14.80
2022-12-06T06:48:35.303Z,14.35
2022-12-06T06:51:07.272Z,18.55
2022-12-06T06:53:35.520Z,14.48
2022-12-06T06:56:03.881Z,14.45
2022-12-06T06:58:31.700Z,13.10
2022-12-06T07:01:01.669Z,12.93
2022-12-06T07:03:30.350Z,12.63
2022-12-06T07:06:03.384Z,13.85
2022-12-06T07:08:32.484Z,15.73
2022-12-06T07:11:00.427Z,15.15
2022-12-06T07:13:29.393Z,15.25
2022-12-06T07:15:57.681Z,14.07
2022-12-06T07:18:25.950Z,11.77
2022-12-06T07:21:01.694Z,12.80
2022-12-06T07:23:29.407Z,14.90
2022-12-06T07:26:16.056Z,12.25
2022-12-06T07:28:46.429Z,16.45
2022-12-06T07:31:17.526Z,12.10
2022-12-06T07:33:46.191Z,15.40
2022-12-06T07:36:15.078Z,15.07
2022-12-06T07:38:44.351Z,15.63
2022-12-06T07:41:32.368Z,14.77
2022-12-06T07:44:20.488Z,13.68
2022-12-06T07:46:49.236Z,16.65
2022-12-06T07:49:18.805Z,14.57
2022-12-06T07:51:46.922Z,15.35
2022-12-06T07:54:16.018Z,28.50
2022-12-06T07:56:44.432Z,18.67
2022-12-06T07:59:12.848Z,17.92
2022-12-06T08:01:40.821Z,10.20
2022-12-06T08:04:09.045Z,10.90
2022-12-06T08:06:37.232Z,11.68
2022-12-06T08:09:05.744Z,14.32
2022-12-06T08:11:33.576Z,11.90
2022-12-06T08:14:01.464Z,15.65
2022-12-06T08:16:29.200Z,13.88
2022-12-06T08:18:57.137Z,12.80
2022-12-06T08:21:27.391Z,17.27
2022-12-06T08:23:55.838Z,12.57
2022-12-06T08:26:24.389Z,13.43
2022-12-06T08:28:52.615Z,13.32
2022-12-06T08:31:23.023Z,19.15
2022-12-06T08:33:51.374Z,52.25
2022-12-06T08:36:22.477Z,16.58
2022-12-06T08:38:50.434Z,16.35
2022-12-06T08:41:37.478Z,12.48
2022-12-06T08:44:05.967Z,13.98
2022-12-06T08:46:35.390Z,16.40
2022-12-06T08:49:03.323Z,16.08
2022-12-06T08:51:32.555Z,15.75
2022-12-06T08:54:00.248Z,17.90
2022-12-06T08:56:28.785Z,21.37
2022-12-06T08:58:57.584Z,17.00
2022-12-06T09:01:35.785Z,16.87
2022-12-06T09:04:08.224Z,16.65
2022-12-06T09:06:38.777Z,15.57
2022-12-06T09:09:07.322Z,18.35
2022-12-06T09:11:35.015Z,15.45
2022-12-06T09:14:02.761Z,16.58
2022-12-06T09:16:30.751Z,18.65
2022-12-06T09:18:59.239Z,27.55
2022-12-06T09:21:31.532Z,16.00
2022-12-06T09:24:00.085Z,16.15
2022-12-06T09:26:29.030Z,19.77
2022-12-06T09:28:57.867Z,17.25
2022-12-06T09:31:26.785Z,17.37
2022-12-06T09:33:54.538Z,16.23
2022-12-06T09:36:31.417Z,15.35
2022-12-06T09:39:11.406Z,15.48
2022-12-06T09:41:55.325Z,16.15
2022-12-06T09:44:59.955Z,16.90
2022-12-06T09:47:46.584Z,18.10
2022-12-06T09:50:17.142Z,16.35
2022-12-06T09:53:18.754Z,19.60
2022-12-06T09:55:55.462Z,17.45
2022-12-06T09:58:57.729Z,16.42
2022-12-06T10:01:25.312Z,20.52
2022-12-06T10:04:16.191Z,19.08
2022-12-06T10:06:49.527Z,18.50
2022-12-06T10:09:39.998Z,17.42
2022-12-06T10:12:36.961Z,17.77
2022-12-06T10:15:36.155Z,16.23
2022-12-06T10:18:36.729Z,20.12
2022-12-06T10:21:12.678Z,17.00
2022-12-06T10:24:13.039Z,17.67
2022-12-06T10:26:52.500Z,19.62
2022-12-06T10:29:29.431Z,16.17
2022-12-06T10:31:59.161Z,15.70
2022-12-06T10:34:48.891Z,14.18
2022-12-06T10:37:41.528Z,15.35
2022-12-06T10:40:22.091Z,14.45
2022-12-06T10:43:03.505Z,16.23
2022-12-06T10:45:57.863Z,16.27
2022-12-06T10:48:43.298Z,14.13
2022-12-06T10:51:17.966Z,15.98
2022-12-06T10:53:51.047Z,12.95
2022-12-06T10:56:27.377Z,13.98
2022-12-06T10:59:01.791Z,14.07
2022-12-06T11:01:35.402Z,12.63
2022-12-06T11:04:11.854Z,14.90
2022-12-06T11:06:53.068Z,17.52
2022-12-06T11:09:42.512Z,13.20
2022-12-06T11:12:35.051Z,14.25
2022-12-06T11:15:18.281Z,15.65
2022-12-06T11:18:02.517Z,14.35
2022-12-06T11:20:39.908Z,16.80
2022-12-06T11:23:20.501Z,15.25
2022-12-06T11:26:33.280Z,14.98
2022-12-06T11:29:08.680Z,15.38
2022-12-06T11:31:46.941Z,13.52
2022-12-06T11:34:28.234Z,14.13
2022-12-06T11:37:00.352Z,16.08
2022-12-06T11:39:30.391Z,15.32
2022-12-06T11:42:02.721Z,14.55
2022-12-06T11:44:42.507Z,17.00
2022-12-06T11:47:21.431Z,14.80
2022-12-06T11:49:52.193Z,16.90
2022-12-06T11:52:23.131Z,14.38
2022-12-06T11:55:03.485Z,14.40
2022-12-06T11:57:38.321Z,14.45
2022-12-06T12:00:17.551Z,15.43
2022-12-06T12:02:47.574Z,16.83
2022-12-06T12:05:22.421Z,16.35
2022-12-06T12:08:03.257Z,12.77
2022-12-06T12:10:36.769Z,12.60
2022-12-06T12:13:38.605Z,14.93
2022-12-06T12:16:17.813Z,11.05
2022-12-06T12:19:01.340Z,14.25
2022-12-06T12:21:43.544Z,13.55
2022-12-06T12:27:40.814Z,14.98
2022-12-06T12:30:30.923Z,14.15
2022-12-06T12:33:07.765Z,13.98
2022-12-06T12:35:37.097Z,14.18
2022-12-06T12:38:10.673Z,16.30
2022-12-06T12:40:47.332Z,15.25
2022-12-06T12:43:20.240Z,13.80
2022-12-06T12:46:10.954Z,13.88
2022-12-06T12:48:46.988Z,11.98
2022-12-06T12:51:36.450Z,13.10
2022-12-06T12:54:19.480Z,14.50
2022-12-06T12:56:47.209Z,17.62
2022-12-06T12:59:21.055Z,12.88
2022-12-06T13:02:06.524Z,12.43
2022-12-06T13:04:50.760Z,12.60
2022-12-06T13:07:32.710Z,16.00
2022-12-06T13:10:06.238Z,12.13
2022-12-06T13:12:44.313Z,11.70
2022-12-06T13:15:48.490Z,13.45
2022-12-06T13:18:30.779Z,13.25
2022-12-06T13:21:02.461Z,11.38
2022-12-06T13:23:35.300Z,16.05
2022-12-06T13:26:15.977Z,14.23
2022-12-06T13:28:51.934Z,13.48
2022-12-06T13:31:22.252Z,15.52
2022-12-06T13:33:54.917Z,13.70
2022-12-06T13:36:25.548Z,15.20
2022-12-06T13:38:53.391Z,14.30
2022-12-06T13:41:54.889Z,16.92
2022-12-06T13:44:44.425Z,16.75
2022-12-06T13:47:30.616Z,13.73
2022-12-06T13:50:00.894Z,15.93
2022-12-06T13:52:57.667Z,12.93
2022-12-06T13:55:25.448Z,12.35
2022-12-06T13:58:01.156Z,13.68
2022-12-06T14:00:31.831Z,12.05
2022-12-06T14:03:04.109Z,16.60
2022-12-06T14:06:14.374Z,15.80
2022-12-06T14:09:00.511Z,16.42
2022-12-06T14:11:35.158Z,15.55
2022-12-06T14:14:18.287Z,17.12
2022-12-06T14:16:50.009Z,14.85
2022-12-06T14:19:25.189Z,13.25
2022-12-06T14:22:03.927Z,16.42
2022-12-06T14:24:41.474Z,16.42
2022-12-06T14:27:14.604Z,13.40
2022-12-06T14:29:44.276Z,14.55
2022-12-06T14:32:12.016Z,14.10
2022-12-06T14:34:39.753Z,13.43
2022-12-06T14:37:22.688Z,12.55
2022-12-06T14:39:54.679Z,15.25
2022-12-06T14:42:41.507Z,13.50
2022-12-06T14:45:17.241Z,14.10
2022-12-06T14:47:46.143Z,12.85
2022-12-06T14:50:32.268Z,14.00
2022-12-06T14:53:00.079Z,14.68
2022-12-06T14:55:30.471Z,13.95
2022-12-06T14:58:21.153Z,14.32
2022-12-06T15:00:55.593Z,14.15
2022-12-06T15:03:33.549Z,15.25
2022-12-06T15:06:16.472Z,12.85
2022-12-06T15:08:50.572Z,12.65
2022-12-06T15:11:50.098Z,12.80
2022-12-06T15:14:46.801Z,14.02
2022-12-06T15:17:14.353Z,13.25
2022-12-06T15:19:48.431Z,13.75
2022-12-06T15:22:25.871Z,13.52
2022-12-06T15:24:58.886Z,13.25
2022-12-06T15:27:28.961Z,16.30
2022-12-06T15:29:56.728Z,14.23
2022-12-06T15:32:27.193Z,13.52
2022-12-06T15:34:54.918Z,14.85
2022-12-06T15:37:38.542Z,15.40
2022-12-06T15:40:08.072Z,18.58
2022-12-06T15:42:35.720Z,14.45
2022-12-06T15:45:03.734Z,13.60
2022-12-06T15:47:31.614Z,14.65
2022-12-06T15:49:59.413Z,13.48
2022-12-06T15:52:28.168Z,12.68
2022-12-06T15:54:55.919Z,14.80
2022-12-06T15:57:23.627Z,12.52
2022-12-06T15:59:51.320Z,12.90
2022-12-06T16:02:19.633Z,12.32
2022-12-06T16:04:49.556Z,14.68
2022-12-06T16:07:19.779Z,12.95
2022-12-06T16:09:48.567Z,14.20
2022-12-06T16:12:16.416Z,13.38
2022-12-06T16:14:44.225Z,13.02
2022-12-06T16:17:11.968Z,13.10
2022-12-06T16:19:58.151Z,13.40
2022-12-06T16:22:45.832Z,16.58
2022-12-06T16:25:13.550Z,14.35
2022-12-06T16:27:41.316Z,15.20
2022-12-06T16:30:10.277Z,14.45
2022-12-06T16:32:37.980Z,13.75
2022-12-06T16:35:05.860Z,12.82
2022-12-06T16:37:33.516Z,14.30
2022-12-06T16:40:01.241Z,14.82
2022-12-06T16:42:28.905Z,14.43
2022-12-06T16:44:56.524Z,14.48
2022-12-06T16:49:49.751Z,17.80
2022-12-06T16:52:18.327Z,20.50
2022-12-06T16:54:46.384Z,18.00
2022-12-06T16:57:15.222Z,17.23
2022-12-06T16:59:43.496Z,16.37
2022-12-06T17:02:27.385Z,18.23
2022-12-06T17:04:55.789Z,17.02
2022-12-06T17:07:23.860Z,18.33
2022-12-06T17:09:51.541Z,17.77
2022-12-06T17:12:19.450Z,16.67
2022-12-06T17:14:47.311Z,18.75
2022-12-06T17:17:21.405Z,17.75
2022-12-06T17:19:50.254Z,18.70
2022-12-06T17:22:18.402Z,16.15
2022-12-06T17:24:46.324Z,14.32
2022-12-06T17:27:15.604Z,16.15
2022-12-06T17:29:44.540Z,16.60
2022-12-06T17:32:13.019Z,16.48
2022-12-06T17:34:40.758Z,15.63
2022-12-06T17:37:08.559Z,17.00
2022-12-06T17:39:36.535Z,21.02
2022-12-06T17:42:23.038Z,17.75
2022-12-06T17:44:52.885Z,19.25
2022-12-06T17:47:20.965Z,14.52
2022-12-06T17:49:48.779Z,18.23
2022-12-06T17:52:16.887Z,18.12
2022-12-06T17:54:44.933Z,15.80
2022-12-06T17:57:17.269Z,18.33
2022-12-06T17:59:47.053Z,15.45
2022-12-06T18:02:20.392Z,18.23
2022-12-06T18:04:49.013Z,19.85
2022-12-06T18:07:18.317Z,19.40
2022-12-06T18:09:46.316Z,21.80
2022-12-06T18:12:15.441Z,20.35
2022-12-06T18:14:43.468Z,18.08
2022-12-06T18:17:12.653Z,16.65
2022-12-06T18:19:41.853Z,18.92
2022-12-06T18:22:09.572Z,22.27
2022-12-06T18:24:37.450Z,20.25
2022-12-06T18:27:06.838Z,20.15
2022-12-06T18:29:35.252Z,18.48
2022-12-06T18:32:03.412Z,18.85
2022-12-06T18:34:31.524Z,18.52
2022-12-06T18:36:59.332Z,19.85
2022-12-06T18:39:27.130Z,19.27
2022-12-06T18:41:55.551Z,20.48
2022-12-06T18:44:23.955Z,22.00
2022-12-06T18:46:51.659Z,20.27
2022-12-06T18:49:19.672Z,21.33
2022-12-06T18:51:47.723Z,19.00
2022-12-06T18:54:15.530Z,20.25
2022-12-06T18:56:43.396Z,17.02
2022-12-06T18:59:12.919Z,21.20
2022-12-06T19:01:41.854Z,18.83
2022-12-06T19:04:15.409Z,21.23
2022-12-06T19:06:44.746Z,20.08
2022-12-06T19:09:14.956Z,22.02
2022-12-06T19:11:46.757Z,21.15
2022-12-06T19:14:15.588Z,23.38
2022-12-06T19:16:45.695Z,22.10
2022-12-06T19:19:22.151Z,22.30
2022-12-06T19:21:51.430Z,23.35
2022-12-06T19:24:22.687Z,22.55
2022-12-06T19:26:52.575Z,25.12
2022-12-06T19:29:20.590Z,23.77
2022-12-06T19:31:48.332Z,21.37
2022-12-06T19:34:19.113Z,20.48
2022-12-06T19:36:47.739Z,19.75
2022-12-06T19:39:15.489Z,19.77
2022-12-06T19:42:02.188Z,17.87
2022-12-06T19:44:31.121Z,21.25
2022-12-06T19:46:59.752Z,20.67
2022-12-06T19:49:28.357Z,22.90
2022-12-06T19:51:56.291Z,23.83
2022-12-06T19:54:26.864Z,22.98
2022-12-06T19:56:57.967Z,23.42
2022-12-06T19:59:28.414Z,22.40
2022-12-06T20:01:59.151Z,20.90
2022-12-06T20:04:32.685Z,21.77
2022-12-06T20:07:00.748Z,24.48
2022-12-06T20:09:31.014Z,23.73
2022-12-06T20:12:03.254Z,24.37
2022-12-06T20:14:46.334Z,21.08
2022-12-06T20:17:20.217Z,18.85
2022-12-06T20:19:49.413Z,18.30
2022-12-06T20:22:18.396Z,20.73
2022-12-06T20:24:46.265Z,18.20
2022-12-06T20:27:14.014Z,23.00
2022-12-06T20:29:41.875Z,22.73
2022-12-06T20:32:11.278Z,21.42
2022-12-06T20:34:39.194Z,20.50
2022-12-06T20:37:07.498Z,23.80
2022-12-06T20:39:36.609Z,19.60
2022-12-06T20:42:06.895Z,22.30
2022-12-06T20:44:35.542Z,24.58
2022-12-06T20:47:03.354Z,25.67
2022-12-06T20:49:31.219Z,22.98
2022-12-06T20:52:00.773Z,20.92
2022-12-06T20:54:28.477Z,25.00
2022-12-06T20:56:56.190Z,21.62
2022-12-06T20:59:23.900Z,24.85
2022-12-06T21:01:51.750Z,20.52
2022-12-06T21:04:19.542Z,23.83
2022-12-06T21:06:47.300Z,22.80
2022-12-06T21:09:14.965Z,19.35
2022-12-06T21:11:42.714Z,24.35
2022-12-06T21:14:12.629Z,21.45
2022-12-06T21:16:42.185Z,19.85
2022-12-06T21:19:13.539Z,21.75
2022-12-06T21:21:44.724Z,20.92
2022-12-06T21:24:15.481Z,20.15
2022-12-06T21:26:43.436Z,19.60
2022-12-06T21:29:20.849Z,20.92
2022-12-06T21:31:50.406Z,21.67
2022-12-06T21:34:18.145Z,22.55
2022-12-06T21:36:45.988Z,23.23
2022-12-06T21:39:15.627Z,24.30
2022-12-06T21:41:43.423Z,20.02
2022-12-06T21:44:11.390Z,18.83
2022-12-06T21:46:39.224Z,21.65
2022-12-06T21:49:07.073Z,26.73
2022-12-06T21:51:34.923Z,22.55
2022-12-06T21:54:02.775Z,21.77
2022-12-06T21:56:31.854Z,21.42
2022-12-06T21:59:02.118Z,23.40
2022-12-06T22:01:31.659Z,21.92
2022-12-06T22:04:01.536Z,22.00
2022-12-06T22:06:29.429Z,20.40
2022-12-06T22:09:05.045Z,22.90
2022-12-06T22:11:33.040Z,21.15
2022-12-06T22:14:02.091Z,19.27
2022-12-06T22:16:29.947Z,20.35
2022-12-06T22:18:58.339Z,23.58
2022-12-06T22:21:28.326Z,20.37
2022-12-06T22:23:58.495Z,19.50
2022-12-06T22:26:29.401Z,21.15
2022-12-06T22:28:58.746Z,18.67
2022-12-06T22:31:29.105Z,18.17
2022-12-06T22:33:58.129Z,19.83
2022-12-06T22:36:26.738Z,20.92
2022-12-06T22:38:59.998Z,22.48
2022-12-06T22:41:29.246Z,21.10
2022-12-06T22:44:02.631Z,18.45
2022-12-06T22:46:31.410Z,21.85
2022-12-06T22:49:00.304Z,19.87
2022-12-06T22:51:30.136Z,19.50
2022-12-06T22:54:03.649Z,21.95
2022-12-06T22:56:32.380Z,18.55
2022-12-06T22:59:01.050Z,19.48
2022-12-06T23:01:31.476Z,20.55
2022-12-06T23:06:29.034Z,21.65
2022-12-06T23:08:57.540Z,22.30
2022-12-06T23:11:31.519Z,22.87
2022-12-06T23:14:00.491Z,21.52
2022-12-06T23:16:30.113Z,24.40
2022-12-06T23:18:59.757Z,19.37
2022-12-06T23:21:30.230Z,23.55
2022-12-06T23:24:00.905Z,23.05
2022-12-06T23:26:35.090Z,21.10
2022-12-06T23:29:02.943Z,21.58
2022-12-06T23:31:33.243Z,24.02
2022-12-06T23:34:07.100Z,22.05
2022-12-06T23:36:36.096Z,24.52
2022-12-06T23:39:05.103Z,22.87
2022-12-06T23:41:33.638Z,23.85
2022-12-06T23:44:01.609Z,24.25
2022-12-06T23:46:32.300Z,26.17
2022-12-06T23:49:00.552Z,22.40
2022-12-06T23:51:32.656Z,26.30
2022-12-06T23:54:01.669Z,28.10
2022-12-06T23:56:32.783Z,21.73
2022-12-06T23:59:02.398Z,27.90
